sensor_id;sensor_type;location;lat;lon;timestamp;pressure;altitude;pressure_sealevel;temperature;humidity
80938;BME280;70395;51.382;7.074;2024-01-06T00:01:50;99053.03;;;8.91;68.36
80938;BME280;70395;51.382;7.074;2024-01-06T00:04:16;99050.19;;;8.93;68.18
80938;BME280;70395;51.382;7.074;2024-01-06T00:06:41;99051.88;;;8.94;68.27
80938;BME280;70395;51.382;7.074;2024-01-06T00:09:07;99055.53;;;8.93;68.11
80938;BME280;70395;51.382;7.074;2024-01-06T00:11:33;99051.22;;;8.92;68.30
80938;BME280;70395;51.382;7.074;2024-01-06T00:13:59;99055.41;;;8.94;68.08
80938;BME280;70395;51.382;7.074;2024-01-06T00:16:25;99061.56;;;8.95;68.00
80938;BME280;70395;51.382;7.074;2024-01-06T00:18:50;99068.59;;;8.96;67.98
80938;BME280;70395;51.382;7.074;2024-01-06T00:21:16;99073.09;;;8.95;68.02
80938;BME280;70395;51.382;7.074;2024-01-06T00:23:42;99072.09;;;8.96;67.95
80938;BME280;70395;51.382;7.074;2024-01-06T00:26:10;99080.13;;;8.96;67.92
80938;BME280;70395;51.382;7.074;2024-01-06T00:28:36;99089.81;;;8.97;67.79
80938;BME280;70395;51.382;7.074;2024-01-06T00:31:02;99087.97;;;8.98;67.97
80938;BME280;70395;51.382;7.074;2024-01-06T00:33:27;99092.34;;;8.99;67.97
80938;BME280;70395;51.382;7.074;2024-01-06T00:35:53;99092.34;;;8.99;67.94
80938;BME280;70395;51.382;7.074;2024-01-06T00:38:21;99099.50;;;8.98;67.77
80938;BME280;70395;51.382;7.074;2024-01-06T00:40:47;99097.00;;;8.97;67.81
80938;BME280;70395;51.382;7.074;2024-01-06T00:43:12;99089.97;;;8.96;68.04
80938;BME280;70395;51.382;7.074;2024-01-06T00:45:38;99098.66;;;8.98;67.94
80938;BME280;70395;51.382;7.074;2024-01-06T00:48:05;99101.03;;;9.01;67.92
80938;BME280;70395;51.382;7.074;2024-01-06T00:50:31;99103.38;;;9.04;67.81
80938;BME280;70395;51.382;7.074;2024-01-06T00:52:56;99105.19;;;9.04;67.78
80938;BME280;70395;51.382;7.074;2024-01-06T00:55:22;99106.03;;;9.04;67.71
80938;BME280;70395;51.382;7.074;2024-01-06T00:57:49;99098.84;;;9.05;67.98
80938;BME280;70395;51.382;7.074;2024-01-06T01:00:15;99104.19;;;9.05;67.75
80938;BME280;70395;51.382;7.074;2024-01-06T01:02:41;99102.34;;;9.05;67.60
80938;BME280;70395;51.382;7.074;2024-01-06T01:05:07;99102.84;;;9.00;67.91
80938;BME280;70395;51.382;7.074;2024-01-06T01:07:34;99102.00;;;9.00;67.87
80938;BME280;70395;51.382;7.074;2024-01-06T01:10:00;99102.00;;;9.00;67.82
80938;BME280;70395;51.382;7.074;2024-01-06T01:12:26;99110.19;;;8.98;67.91
80938;BME280;70395;51.382;7.074;2024-01-06T01:14:53;99107.00;;;8.95;67.83
80938;BME280;70395;51.382;7.074;2024-01-06T01:17:19;99106.88;;;8.96;68.00
80938;BME280;70395;51.382;7.074;2024-01-06T01:19:45;99103.34;;;8.96;68.20
80938;BME280;70395;51.382;7.074;2024-01-06T01:22:12;99111.38;;;8.96;68.04
80938;BME280;70395;51.382;7.074;2024-01-06T01:24:38;99109.69;;;8.95;68.20
80938;BME280;70395;51.382;7.074;2024-01-06T01:27:04;99119.56;;;8.94;68.00
80938;BME280;70395;51.382;7.074;2024-01-06T01:29:30;99123.91;;;8.95;67.96
80938;BME280;70395;51.382;7.074;2024-01-06T01:31:56;99123.91;;;8.95;68.08
80938;BME280;70395;51.382;7.074;2024-01-06T01:34:22;99128.41;;;8.95;68.16
80938;BME280;70395;51.382;7.074;2024-01-06T01:36:47;99128.41;;;8.95;68.16
80938;BME280;70395;51.382;7.074;2024-01-06T01:39:13;99134.75;;;8.94;68.20
80938;BME280;70395;51.382;7.074;2024-01-06T01:41:40;99140.09;;;8.94;68.44
80938;BME280;70395;51.382;7.074;2024-01-06T01:44:06;99133.06;;;8.93;68.35
80938;BME280;70395;51.382;7.074;2024-01-06T01:46:32;99130.41;;;8.93;68.30
80938;BME280;70395;51.382;7.074;2024-01-06T01:49:01;99134.75;;;8.94;68.23
80938;BME280;70395;51.382;7.074;2024-01-06T01:51:30;99135.44;;;8.96;68.22
80938;BME280;70395;51.382;7.074;2024-01-06T01:54:01;99139.63;;;8.98;68.35
80938;BME280;70395;51.382;7.074;2024-01-06T01:56:31;99143.28;;;8.97;68.45
80938;BME280;70395;51.382;7.074;2024-01-06T01:59:06;99142.59;;;8.95;68.11
80938;BME280;70395;51.382;7.074;2024-01-06T02:01:33;99144.28;;;8.96;68.24
80938;BME280;70395;51.382;7.074;2024-01-06T02:03:59;99147.63;;;8.98;68.27
80938;BME280;70395;51.382;7.074;2024-01-06T02:06:25;99148.00;;;9.04;68.23
80938;BME280;70395;51.382;7.074;2024-01-06T02:08:51;99150.16;;;9.08;68.21
80938;BME280;70395;51.382;7.074;2024-01-06T02:11:17;99146.16;;;9.12;68.15
80938;BME280;70395;51.382;7.074;2024-01-06T02:13:42;99152.03;;;9.16;67.94
80938;BME280;70395;51.382;7.074;2024-01-06T02:16:08;99146.50;;;9.18;67.94
80938;BME280;70395;51.382;7.074;2024-01-06T02:18:34;99150.69;;;9.20;67.85
80938;BME280;70395;51.382;7.074;2024-01-06T02:21:03;99155.19;;;9.20;67.75
80938;BME280;70395;51.382;7.074;2024-01-06T02:23:29;99155.19;;;9.20;67.72
80938;BME280;70395;51.382;7.074;2024-01-06T02:25:56;99159.56;;;9.21;67.86
80938;BME280;70395;51.382;7.074;2024-01-06T02:28:22;99161.19;;;9.22;67.85
80938;BME280;70395;51.382;7.074;2024-01-06T02:30:49;99161.38;;;9.20;67.96
80938;BME280;70395;51.382;7.074;2024-01-06T02:33:15;99169.41;;;9.20;67.76
80938;BME280;70395;51.382;7.074;2024-01-06T02:35:40;99173.06;;;9.19;67.95
80938;BME280;70395;51.382;7.074;2024-01-06T02:38:07;99183.94;;;9.18;67.94
80938;BME280;70395;51.382;7.074;2024-01-06T02:40:34;99181.28;;;9.18;67.94
80938;BME280;70395;51.382;7.074;2024-01-06T02:42:59;99185.94;;;9.16;68.00
80938;BME280;70395;51.382;7.074;2024-01-06T02:45:25;99191.31;;;9.16;68.09
80938;BME280;70395;51.382;7.074;2024-01-06T02:47:51;99184.25;;;9.15;67.94
80938;BME280;70395;51.382;7.074;2024-01-06T02:50:17;99188.44;;;9.17;68.19
80938;BME280;70395;51.382;7.074;2024-01-06T02:52:44;99187.28;;;9.20;67.98
80938;BME280;70395;51.382;7.074;2024-01-06T02:55:13;99191.66;;;9.21;67.97
80938;BME280;70395;51.382;7.074;2024-01-06T02:57:39;99199.50;;;9.22;67.98
80938;BME280;70395;51.382;7.074;2024-01-06T03:00:08;99199.50;;;9.22;67.85
80938;BME280;70395;51.382;7.074;2024-01-06T03:02:34;99209.22;;;9.23;67.72
80938;BME280;70395;51.382;7.074;2024-01-06T03:05:02;99209.22;;;9.23;67.74
80938;BME280;70395;51.382;7.074;2024-01-06T03:07:27;99202.69;;;9.26;67.98
80938;BME280;70395;51.382;7.074;2024-01-06T03:09:53;99212.22;;;9.29;67.83
80938;BME280;70395;51.382;7.074;2024-01-06T03:12:19;99213.88;;;9.30;67.80
80938;BME280;70395;51.382;7.074;2024-01-06T03:14:45;99219.09;;;9.31;67.71
80938;BME280;70395;51.382;7.074;2024-01-06T03:17:11;99212.91;;;9.31;67.58
80938;BME280;70395;51.382;7.074;2024-01-06T03:19:36;99219.25;;;9.30;67.74
80938;BME280;70395;51.382;7.074;2024-01-06T03:22:02;99214.72;;;9.30;67.83
80938;BME280;70395;51.382;7.074;2024-01-06T03:24:28;99218.41;;;9.29;67.77
80938;BME280;70395;51.382;7.074;2024-01-06T03:26:54;99226.41;;;9.29;67.83
80938;BME280;70395;51.382;7.074;2024-01-06T03:29:20;99227.94;;;9.32;67.60
80938;BME280;70395;51.382;7.074;2024-01-06T03:31:46;99230.47;;;9.33;67.83
80938;BME280;70395;51.382;7.074;2024-01-06T03:34:13;99239.16;;;9.35;67.84
80938;BME280;70395;51.382;7.074;2024-01-06T03:36:39;99240.66;;;9.38;67.66
80938;BME280;70395;51.382;7.074;2024-01-06T03:39:06;99236.31;;;9.37;67.85
80938;BME280;70395;51.382;7.074;2024-01-06T03:41:32;99241.00;;;9.35;67.58
80938;BME280;70395;51.382;7.074;2024-01-06T03:43:58;99237.47;;;9.34;67.73
80938;BME280;70395;51.382;7.074;2024-01-06T03:46:24;99241.66;;;9.37;67.66
80938;BME280;70395;51.382;7.074;2024-01-06T03:48:50;99252.03;;;9.40;67.69
80938;BME280;70395;51.382;7.074;2024-01-06T03:51:16;99254.41;;;9.43;67.40
80938;BME280;70395;51.382;7.074;2024-01-06T03:53:41;99256.91;;;9.45;67.53
80938;BME280;70395;51.382;7.074;2024-01-06T03:56:07;99258.59;;;9.46;67.33
80938;BME280;70395;51.382;7.074;2024-01-06T03:58:34;99260.56;;;9.44;67.24
80938;BME280;70395;51.382;7.074;2024-01-06T04:01:00;99268.09;;;9.40;67.06
80938;BME280;70395;51.382;7.074;2024-01-06T04:03:26;99272.44;;;9.33;66.85
80938;BME280;70395;51.382;7.074;2024-01-06T04:05:52;99278.59;;;9.25;66.64
80938;BME280;70395;51.382;7.074;2024-01-06T04:08:18;99283.94;;;9.17;66.53
80938;BME280;70395;51.382;7.074;2024-01-06T04:10:44;99276.16;;;9.05;66.37
80938;BME280;70395;51.382;7.074;2024-01-06T04:13:11;99290.34;;;8.97;66.53
80938;BME280;70395;51.382;7.074;2024-01-06T04:15:37;99275.13;;;8.89;66.23
80938;BME280;70395;51.382;7.074;2024-01-06T04:18:05;99286.44;;;8.83;66.38
80938;BME280;70395;51.382;7.074;2024-01-06T04:20:32;99279.06;;;8.77;66.30
80938;BME280;70395;51.382;7.074;2024-01-06T04:22:58;99290.25;;;8.72;66.18
80938;BME280;70395;51.382;7.074;2024-01-06T04:25:25;99286.34;;;8.66;66.32
80938;BME280;70395;51.382;7.074;2024-01-06T04:27:51;99290.00;;;8.65;66.26
80938;BME280;70395;51.382;7.074;2024-01-06T04:30:17;99288.66;;;8.61;66.10
80938;BME280;70395;51.382;7.074;2024-01-06T04:32:43;99300.50;;;8.59;66.15
80938;BME280;70395;51.382;7.074;2024-01-06T04:35:10;99296.59;;;8.53;65.83
80938;BME280;70395;51.382;7.074;2024-01-06T04:37:35;99304.94;;;8.50;66.06
80938;BME280;70395;51.382;7.074;2024-01-06T04:40:01;99299.91;;;8.47;66.10
80938;BME280;70395;51.382;7.074;2024-01-06T04:42:27;99307.41;;;8.43;65.99
80938;BME280;70395;51.382;7.074;2024-01-06T04:44:53;99307.53;;;8.41;66.16
80938;BME280;70395;51.382;7.074;2024-01-06T04:47:19;99311.06;;;8.42;66.27
80938;BME280;70395;51.382;7.074;2024-01-06T04:49:45;99318.22;;;8.41;66.11
80938;BME280;70395;51.382;7.074;2024-01-06T04:52:11;99307.72;;;8.40;66.13
80938;BME280;70395;51.382;7.074;2024-01-06T04:54:37;99311.38;;;8.39;66.15
80938;BME280;70395;51.382;7.074;2024-01-06T04:57:03;99310.84;;;8.35;65.86
80938;BME280;70395;51.382;7.074;2024-01-06T04:59:30;99312.97;;;8.31;65.72
80938;BME280;70395;51.382;7.074;2024-01-06T05:01:57;99313.28;;;8.28;65.43
80938;BME280;70395;51.382;7.074;2024-01-06T05:04:24;99324.31;;;8.25;65.62
80938;BME280;70395;51.382;7.074;2024-01-06T05:06:51;99320.25;;;8.21;65.57
80938;BME280;70395;51.382;7.074;2024-01-06T05:09:18;99321.41;;;8.18;65.68
80938;BME280;70395;51.382;7.074;2024-01-06T05:11:44;99323.25;;;8.18;65.64
80938;BME280;70395;51.382;7.074;2024-01-06T05:14:10;99333.06;;;8.17;66.00
80938;BME280;70395;51.382;7.074;2024-01-06T05:16:36;99334.06;;;8.16;65.72
80938;BME280;70395;51.382;7.074;2024-01-06T05:19:02;99334.06;;;8.16;65.80
80938;BME280;70395;51.382;7.074;2024-01-06T05:21:29;99340.25;;;8.17;65.71
80938;BME280;70395;51.382;7.074;2024-01-06T05:23:55;99337.56;;;8.17;65.70
80938;BME280;70395;51.382;7.074;2024-01-06T05:26:21;99339.41;;;8.16;65.83
80938;BME280;70395;51.382;7.074;2024-01-06T05:28:47;99340.25;;;8.17;65.80
80938;BME280;70395;51.382;7.074;2024-01-06T05:31:13;99340.25;;;8.17;65.68
80938;BME280;70395;51.382;7.074;2024-01-06T05:33:39;99340.41;;;8.15;65.67
80938;BME280;70395;51.382;7.074;2024-01-06T05:36:05;99345.06;;;8.13;65.85
80938;BME280;70395;51.382;7.074;2024-01-06T05:38:31;99346.91;;;8.13;65.81
80938;BME280;70395;51.382;7.074;2024-01-06T05:40:57;99352.06;;;8.14;65.94
80938;BME280;70395;51.382;7.074;2024-01-06T05:43:23;99348.41;;;8.15;65.98
80938;BME280;70395;51.382;7.074;2024-01-06T05:45:49;99355.28;;;8.18;65.84
80938;BME280;70395;51.382;7.074;2024-01-06T05:48:14;99358.81;;;8.18;65.61
80938;BME280;70395;51.382;7.074;2024-01-06T05:50:40;99359.78;;;8.17;65.62
80938;BME280;70395;51.382;7.074;2024-01-06T05:53:07;99364.28;;;8.17;65.82
80938;BME280;70395;51.382;7.074;2024-01-06T05:55:33;99370.63;;;8.16;65.75
80938;BME280;70395;51.382;7.074;2024-01-06T05:57:59;99367.13;;;8.15;65.75
80938;BME280;70395;51.382;7.074;2024-01-06T06:00:26;99366.94;;;8.17;65.87
80938;BME280;70395;51.382;7.074;2024-01-06T06:02:52;99373.13;;;8.17;65.95
80938;BME280;70395;51.382;7.074;2024-01-06T06:05:18;99377.50;;;8.18;65.75
80938;BME280;70395;51.382;7.074;2024-01-06T06:07:45;99377.50;;;8.18;65.69
80938;BME280;70395;51.382;7.074;2024-01-06T06:10:11;99377.50;;;8.18;65.73
80938;BME280;70395;51.382;7.074;2024-01-06T06:12:39;99381.16;;;8.17;65.80
80938;BME280;70395;51.382;7.074;2024-01-06T06:15:05;99382.97;;;8.17;65.34
80938;BME280;70395;51.382;7.074;2024-01-06T06:17:32;99395.19;;;8.19;65.77
80938;BME280;70395;51.382;7.074;2024-01-06T06:19:59;99390.84;;;8.18;65.63
80938;BME280;70395;51.382;7.074;2024-01-06T06:22:28;99397.16;;;8.17;65.77
80938;BME280;70395;51.382;7.074;2024-01-06T06:24:58;99400.69;;;8.18;65.78
80938;BME280;70395;51.382;7.074;2024-01-06T06:27:25;99402.34;;;8.19;65.74
80938;BME280;70395;51.382;7.074;2024-01-06T06:29:52;99410.38;;;8.19;65.65
80938;BME280;70395;51.382;7.074;2024-01-06T06:32:18;99419.22;;;8.19;65.56
80938;BME280;70395;51.382;7.074;2024-01-06T06:34:44;99422.91;;;8.18;65.59
80938;BME280;70395;51.382;7.074;2024-01-06T06:37:10;99426.56;;;8.17;65.56
80938;BME280;70395;51.382;7.074;2024-01-06T06:39:36;99427.53;;;8.16;65.53
80938;BME280;70395;51.382;7.074;2024-01-06T06:42:03;99432.19;;;8.14;65.32
80938;BME280;70395;51.382;7.074;2024-01-06T06:44:29;99432.50;;;8.11;65.31
80938;BME280;70395;51.382;7.074;2024-01-06T06:46:56;99438.16;;;8.08;65.73
80938;BME280;70395;51.382;7.074;2024-01-06T06:49:22;99434.78;;;8.06;65.65
80938;BME280;70395;51.382;7.074;2024-01-06T06:51:48;99443.78;;;8.05;65.69
80938;BME280;70395;51.382;7.074;2024-01-06T06:54:15;99443.09;;;8.03;65.61
80938;BME280;70395;51.382;7.074;2024-01-06T06:56:42;99448.44;;;8.03;65.77
80938;BME280;70395;51.382;7.074;2024-01-06T06:59:08;99463.75;;;8.00;65.85
80938;BME280;70395;51.382;7.074;2024-01-06T07:01:33;99458.56;;;7.99;65.62
80938;BME280;70395;51.382;7.074;2024-01-06T07:04:01;99464.75;;;7.99;65.75
80938;BME280;70395;51.382;7.074;2024-01-06T07:06:28;99469.25;;;7.99;65.57
80938;BME280;70395;51.382;7.074;2024-01-06T07:08:55;99479.91;;;7.99;65.71
80938;BME280;70395;51.382;7.074;2024-01-06T07:11:21;99482.59;;;7.99;65.46
80938;BME280;70395;51.382;7.074;2024-01-06T07:13:47;99487.94;;;7.99;65.69
80938;BME280;70395;51.382;7.074;2024-01-06T07:16:13;99488.94;;;7.98;65.83
80938;BME280;70395;51.382;7.074;2024-01-06T07:18:39;99496.38;;;7.94;65.65
80938;BME280;70395;51.382;7.074;2024-01-06T07:21:05;99494.03;;;7.91;65.54
80938;BME280;70395;51.382;7.074;2024-01-06T07:23:34;99496.44;;;7.84;65.61
80938;BME280;70395;51.382;7.074;2024-01-06T07:26:01;99503.75;;;7.82;65.93
80938;BME280;70395;51.382;7.074;2024-01-06T07:28:27;99503.91;;;7.81;65.95
80938;BME280;70395;51.382;7.074;2024-01-06T07:30:53;99511.75;;;7.82;65.96
80938;BME280;70395;51.382;7.074;2024-01-06T07:33:19;99517.66;;;7.86;65.75
80938;BME280;70395;51.382;7.074;2024-01-06T07:35:45;99517.66;;;7.86;65.89
80938;BME280;70395;51.382;7.074;2024-01-06T07:38:12;99513.97;;;7.87;65.88
80938;BME280;70395;51.382;7.074;2024-01-06T07:40:38;99512.16;;;7.87;65.85
80938;BME280;70395;51.382;7.074;2024-01-06T07:43:04;99525.34;;;7.89;65.87
80938;BME280;70395;51.382;7.074;2024-01-06T07:45:31;99524.38;;;7.90;65.56
80938;BME280;70395;51.382;7.074;2024-01-06T07:59:01;99540.59;;;7.79;65.74
80938;BME280;70395;51.382;7.074;2024-01-06T08:01:27;99548.59;;;7.79;65.63
80938;BME280;70395;51.382;7.074;2024-01-06T08:03:53;99552.25;;;7.77;65.48
80938;BME280;70395;51.382;7.074;2024-01-06T08:06:19;99560.25;;;7.77;65.50
80938;BME280;70395;51.382;7.074;2024-01-06T08:08:45;99566.72;;;7.75;65.73
80938;BME280;70395;51.382;7.074;2024-01-06T08:11:14;99574.88;;;7.73;65.86
80938;BME280;70395;51.382;7.074;2024-01-06T08:13:40;99582.03;;;7.73;65.86
80938;BME280;70395;51.382;7.074;2024-01-06T08:16:06;99589.63;;;7.68;65.81
80938;BME280;70395;51.382;7.074;2024-01-06T08:18:32;99587.25;;;7.64;66.02
80938;BME280;70395;51.382;7.074;2024-01-06T08:20:58;99590.91;;;7.63;65.87
80938;BME280;70395;51.382;7.074;2024-01-06T08:23:24;99593.75;;;7.62;66.09
80938;BME280;70395;51.382;7.074;2024-01-06T08:25:50;99594.88;;;7.59;65.90
80938;BME280;70395;51.382;7.074;2024-01-06T08:28:15;99603.00;;;7.58;65.91
80938;BME280;70395;51.382;7.074;2024-01-06T08:30:42;99612.13;;;7.55;66.10
80938;BME280;70395;51.382;7.074;2024-01-06T08:33:08;99612.28;;;7.53;65.98
80938;BME280;70395;51.382;7.074;2024-01-06T08:35:34;99616.06;;;7.51;65.90
80938;BME280;70395;51.382;7.074;2024-01-06T08:38:08;99617.19;;;7.48;66.14
80938;BME280;70395;51.382;7.074;2024-01-06T08:40:35;99625.19;;;7.48;66.19
80938;BME280;70395;51.382;7.074;2024-01-06T08:43:02;99625.19;;;7.48;66.11
80938;BME280;70395;51.382;7.074;2024-01-06T08:45:28;99635.88;;;7.48;65.98
80938;BME280;70395;51.382;7.074;2024-01-06T08:47:54;99634.06;;;7.49;66.14
80938;BME280;70395;51.382;7.074;2024-01-06T08:50:20;99644.56;;;7.50;66.35
80938;BME280;70395;51.382;7.074;2024-01-06T08:52:46;99653.28;;;7.52;66.43
80938;BME280;70395;51.382;7.074;2024-01-06T08:55:11;99649.78;;;7.52;66.44
80938;BME280;70395;51.382;7.074;2024-01-06T08:57:37;99652.56;;;7.50;66.22
80938;BME280;70395;51.382;7.074;2024-01-06T09:00:06;99657.91;;;7.50;66.44
80938;BME280;70395;51.382;7.074;2024-01-06T09:02:34;99670.41;;;7.50;66.71
80938;BME280;70395;51.382;7.074;2024-01-06T09:05:00;99673.22;;;7.48;66.15
80938;BME280;70395;51.382;7.074;2024-01-06T09:07:26;99680.53;;;7.46;66.19
80938;BME280;70395;51.382;7.074;2024-01-06T09:09:52;99675.34;;;7.45;66.12
80938;BME280;70395;51.382;7.074;2024-01-06T09:12:18;99679.84;;;7.44;66.21
80938;BME280;70395;51.382;7.074;2024-01-06T09:14:43;99680.69;;;7.45;66.20
80938;BME280;70395;51.382;7.074;2024-01-06T09:17:09;99683.63;;;7.41;65.87
80938;BME280;70395;51.382;7.074;2024-01-06T09:19:35;99680.25;;;7.39;66.19
80938;BME280;70395;51.382;7.074;2024-01-06T09:22:01;99698.22;;;7.37;66.23
80938;BME280;70395;51.382;7.074;2024-01-06T09:24:26;99701.88;;;7.36;66.25
80938;BME280;70395;51.382;7.074;2024-01-06T09:26:52;99698.34;;;7.36;66.20
80938;BME280;70395;51.382;7.074;2024-01-06T09:29:19;99693.28;;;7.32;66.10
80938;BME280;70395;51.382;7.074;2024-01-06T09:31:45;99711.97;;;7.32;66.13
80938;BME280;70395;51.382;7.074;2024-01-06T09:34:10;99709.44;;;7.31;66.22
80938;BME280;70395;51.382;7.074;2024-01-06T09:36:37;99707.63;;;7.31;66.31
80938;BME280;70395;51.382;7.074;2024-01-06T09:39:04;99715.47;;;7.33;66.67
80938;BME280;70395;51.382;7.074;2024-01-06T09:41:34;99722.50;;;7.34;66.62
80938;BME280;70395;51.382;7.074;2024-01-06T09:44:00;99718.28;;;7.31;66.55
80938;BME280;70395;51.382;7.074;2024-01-06T09:46:28;99721.94;;;7.30;66.13
80938;BME280;70395;51.382;7.074;2024-01-06T09:48:58;99730.06;;;7.29;66.31
80938;BME280;70395;51.382;7.074;2024-01-06T09:51:25;99736.38;;;7.28;66.47
80938;BME280;70395;51.382;7.074;2024-01-06T09:54:00;99735.56;;;7.27;66.35
80938;BME280;70395;51.382;7.074;2024-01-06T09:56:28;99737.22;;;7.28;66.18
80938;BME280;70395;51.382;7.074;2024-01-06T09:58:55;99740.75;;;7.29;66.21
80938;BME280;70395;51.382;7.074;2024-01-06T10:01:21;99741.59;;;7.29;66.34
80938;BME280;70395;51.382;7.074;2024-01-06T10:03:48;99736.25;;;7.29;66.20
80938;BME280;70395;51.382;7.074;2024-01-06T10:06:15;99745.13;;;7.30;66.10
80938;BME280;70395;51.382;7.074;2024-01-06T10:08:59;99756.59;;;7.30;66.14
80938;BME280;70395;51.382;7.074;2024-01-06T10:11:25;99758.16;;;7.33;65.76
80938;BME280;70395;51.382;7.074;2024-01-06T10:13:54;99759.84;;;7.34;66.12
80938;BME280;70395;51.382;7.074;2024-01-06T10:16:23;99762.50;;;7.34;65.96
80938;BME280;70395;51.382;7.074;2024-01-06T10:18:49;99767.97;;;7.32;65.96
80938;BME280;70395;51.382;7.074;2024-01-06T10:21:14;99767.97;;;7.32;66.11
80938;BME280;70395;51.382;7.074;2024-01-06T10:23:43;99768.97;;;7.31;65.72
80938;BME280;70395;51.382;7.074;2024-01-06T10:26:14;99773.72;;;7.28;65.77
80938;BME280;70395;51.382;7.074;2024-01-06T10:28:40;99778.09;;;7.29;66.00
80938;BME280;70395;51.382;7.074;2024-01-06T10:31:08;99770.94;;;7.29;66.00
80938;BME280;70395;51.382;7.074;2024-01-06T10:33:35;99777.94;;;7.30;66.01
80938;BME280;70395;51.382;7.074;2024-01-06T10:36:01;99773.44;;;7.31;66.11
80938;BME280;70395;51.382;7.074;2024-01-06T10:38:30;99773.44;;;7.31;65.90
80938;BME280;70395;51.382;7.074;2024-01-06T10:41:00;99773.59;;;7.29;65.68
80938;BME280;70395;51.382;7.074;2024-01-06T10:43:33;99775.41;;;7.29;65.94
80938;BME280;70395;51.382;7.074;2024-01-06T10:46:07;99779.19;;;7.26;65.71
80938;BME280;70395;51.382;7.074;2024-01-06T10:48:38;99775.13;;;7.22;65.75
80938;BME280;70395;51.382;7.074;2024-01-06T10:51:09;99775.25;;;7.20;65.89
80938;BME280;70395;51.382;7.074;2024-01-06T10:53:35;99779.75;;;7.20;65.67
80938;BME280;70395;51.382;7.074;2024-01-06T10:56:03;99779.19;;;7.16;65.82
80938;BME280;70395;51.382;7.074;2024-01-06T10:58:32;99783.09;;;7.12;65.69
80938;BME280;70395;51.382;7.074;2024-01-06T11:00:59;99780.84;;;7.07;65.85
80938;BME280;70395;51.382;7.074;2024-01-06T11:03:29;99787.41;;;7.03;65.92
80938;BME280;70395;51.382;7.074;2024-01-06T11:05:56;99783.06;;;7.02;65.93
80938;BME280;70395;51.382;7.074;2024-01-06T11:08:24;99779.13;;;6.96;65.89
80938;BME280;70395;51.382;7.074;2024-01-06T11:10:51;99780.63;;;6.89;65.99
80938;BME280;70395;51.382;7.074;2024-01-06T11:13:22;99773.91;;;6.85;66.03
80938;BME280;70395;51.382;7.074;2024-01-06T11:15:53;99780.34;;;6.82;66.27
80938;BME280;70395;51.382;7.074;2024-01-06T11:18:39;99778.94;;;6.78;66.17
80938;BME280;70395;51.382;7.074;2024-01-06T11:21:19;99785.22;;;6.77;66.15
80938;BME280;70395;51.382;7.074;2024-01-06T11:26:33;99790.81;;;6.74;66.13
80938;BME280;70395;51.382;7.074;2024-01-06T11:29:00;99790.94;;;6.72;66.22
80938;BME280;70395;51.382;7.074;2024-01-06T11:31:33;99790.00;;;6.73;66.08
80938;BME280;70395;51.382;7.074;2024-01-06T11:34:17;99792.91;;;6.70;65.91
80938;BME280;70395;51.382;7.074;2024-01-06T11:36:45;99789.25;;;6.71;65.86
80938;BME280;70395;51.382;7.074;2024-01-06T11:39:36;99800.91;;;6.70;65.76
80938;BME280;70395;51.382;7.074;2024-01-06T11:42:05;99794.56;;;6.71;65.90
80938;BME280;70395;51.382;7.074;2024-01-06T11:44:36;99790.25;;;6.70;65.88
80938;BME280;70395;51.382;7.074;2024-01-06T11:47:04;99801.03;;;6.69;65.75
80938;BME280;70395;51.382;7.074;2024-01-06T11:49:30;99792.31;;;6.67;65.89
80938;BME280;70395;51.382;7.074;2024-01-06T11:51:57;99793.31;;;6.66;65.86
80938;BME280;70395;51.382;7.074;2024-01-06T11:54:24;99788.94;;;6.64;65.92
80938;BME280;70395;51.382;7.074;2024-01-06T11:56:49;99794.28;;;6.64;65.53
80938;BME280;70395;51.382;7.074;2024-01-06T11:59:15;99793.44;;;6.64;65.63
80938;BME280;70395;51.382;7.074;2024-01-06T12:01:41;99794.97;;;6.67;65.78
80938;BME280;70395;51.382;7.074;2024-01-06T12:04:08;99795.84;;;6.67;65.72
80938;BME280;70395;51.382;7.074;2024-01-06T12:06:39;99790.50;;;6.67;65.70
80938;BME280;70395;51.382;7.074;2024-01-06T12:09:12;99794.97;;;6.67;65.80
80938;BME280;70395;51.382;7.074;2024-01-06T12:11:42;99796.69;;;6.68;65.69
80938;BME280;70395;51.382;7.074;2024-01-06T12:14:10;99799.34;;;6.68;65.73
80938;BME280;70395;51.382;7.074;2024-01-06T12:16:36;99802.00;;;6.68;65.61
80938;BME280;70395;51.382;7.074;2024-01-06T12:19:02;99802.00;;;6.68;65.61
80938;BME280;70395;51.382;7.074;2024-01-06T12:21:30;99804.78;;;6.66;65.66
80938;BME280;70395;51.382;7.074;2024-01-06T12:24:19;99808.00;;;6.60;65.85
80938;BME280;70395;51.382;7.074;2024-01-06T12:26:46;99805.47;;;6.58;65.63
80938;BME280;70395;51.382;7.074;2024-01-06T12:29:13;99811.06;;;6.55;65.66
80938;BME280;70395;51.382;7.074;2024-01-06T12:31:40;99811.19;;;6.53;65.68
80938;BME280;70395;51.382;7.074;2024-01-06T12:34:07;99815.09;;;6.49;65.79
80938;BME280;70395;51.382;7.074;2024-01-06T12:36:42;99814.63;;;6.44;66.03
80938;BME280;70395;51.382;7.074;2024-01-06T12:39:13;99811.41;;;6.40;65.84
80938;BME280;70395;51.382;7.074;2024-01-06T12:41:42;99814.56;;;6.34;65.97
80938;BME280;70395;51.382;7.074;2024-01-06T12:44:09;99815.81;;;6.30;65.91
80938;BME280;70395;51.382;7.074;2024-01-06T12:46:35;99825.03;;;6.26;65.79
80938;BME280;70395;51.382;7.074;2024-01-06T12:49:02;99817.31;;;6.23;65.80
80938;BME280;70395;51.382;7.074;2024-01-06T12:51:28;99820.97;;;6.22;65.87
80938;BME280;70395;51.382;7.074;2024-01-06T12:53:54;99825.69;;;6.18;65.59
80938;BME280;70395;51.382;7.074;2024-01-06T12:56:21;99822.31;;;6.16;65.60
80938;BME280;70395;51.382;7.074;2024-01-06T12:58:46;99827.78;;;6.14;65.62
80938;BME280;70395;51.382;7.074;2024-01-06T13:01:12;99835.00;;;6.12;65.72
80938;BME280;70395;51.382;7.074;2024-01-06T13:03:38;99838.53;;;6.13;65.53
80938;BME280;70395;51.382;7.074;2024-01-06T13:06:04;99828.13;;;6.10;65.67
80938;BME280;70395;51.382;7.074;2024-01-06T13:08:30;99838.66;;;6.11;65.59
80938;BME280;70395;51.382;7.074;2024-01-06T13:10:57;99839.53;;;6.12;65.55
80938;BME280;70395;51.382;7.074;2024-01-06T13:13:23;99842.03;;;6.13;65.40
80938;BME280;70395;51.382;7.074;2024-01-06T13:15:48;99840.09;;;6.15;65.46
80938;BME280;70395;51.382;7.074;2024-01-06T13:18:14;99840.94;;;6.16;65.25
80938;BME280;70395;51.382;7.074;2024-01-06T13:20:42;99841.09;;;6.14;65.04
80938;BME280;70395;51.382;7.074;2024-01-06T13:23:09;99843.00;;;6.12;65.19